Esther Spirit — C6FY6 — position and weather

sailwx.info

Track history (hours):
 
Tides and Currents Weather Stations Pressure Air Temp Water Temp Dewpoint Dewpoint Depression Visibility Wind Speed Wind Dir Waves Ship Positions

Esther Spirit

Last reported at 2017-Sep-21 17:47 UTC. Time now 2017-Nov-24 05:52 UTC.
Position N 29°29' W 094°51'.
Warning: this ship's position is months out of date.

Length 249 m; draft 12.5 m.

Type: Tanker. MMSI: 311646000.

Date/timePositionNaut miles runAvg speedWind from/ knotsBaromVisibWave heightAir tempDewpointWater temp
2017-Sep-21 17:47N 29°29' W 094°51'2 6.7
2017-Sep-21 17:29N 29°30' W 094°53'3 6.3
2017-Sep-21 17:00N 29°33' W 094°54'2 4.1
2017-Sep-21 16:30N 29°35' W 094°56'0 0.7
2017-Sep-21 16:00N 29°35' W 094°56'2 4.7
2017-Sep-21 15:30N 29°37' W 094°57'4 8.4
2017-Sep-21 15:00N 29°41' W 094°59'4 7.2
2017-Sep-21 14:29N 29°44' W 095°02'4 7.0
2017-Sep-21 13:59N 29°46' W 095°05'3 4.9
2017-Sep-21 13:28N 29°44' W 095°07'0 0.0
2017-Sep-20 12:00N 29°44' W 095°08'0 0.0
2017-Sep-20 11:28N 29°44' W 095°08'0 0.0
2017-Sep-20 10:57N 29°44' W 095°08'0 0.0
2017-Sep-20 10:29N 29°44' W 095°08'0 0.0
2017-Sep-20 09:59N 29°44' W 095°08'0 0.0
2017-Sep-20 09:30N 29°44' W 095°08'0 0.0
2017-Sep-20 09:00N 29°44' W 095°08'0 0.0
2017-Sep-20 08:29N 29°44' W 095°08'0 0.0
2017-Sep-20 07:59N 29°44' W 095°08'0 0.0
2017-Sep-20 07:23N 29°44' W 095°08'0 0.0
2017-Sep-20 06:58N 29°44' W 095°08'0 0.0
2017-Sep-20 06:30N 29°44' W 095°08'0 0.0
2017-Sep-20 06:00N 29°44' W 095°08'0 0.0
2017-Sep-20 05:27N 29°44' W 095°08'0 0.0
2017-Sep-20 05:00N 29°44' W 095°08'0 0.0
2017-Sep-20 04:30N 29°44' W 095°08'0 0.0
2017-Sep-20 03:57N 29°44' W 095°08'0 0.0
2017-Sep-20 03:30N 29°44' W 095°08'0 0.0
2017-Sep-20 03:00N 29°44' W 095°08'0 0.0
2017-Sep-20 02:30N 29°44' W 095°08'0 0.0
2017-Sep-20 01:57N 29°44' W 095°08'0 0.0
2017-Sep-20 01:30N 29°44' W 095°08'0 0.0
2017-Sep-20 00:52N 29°44' W 095°08'0 0.0
2017-Sep-20 00:28N 29°44' W 095°08'0 0.0
2017-Sep-20 00:00N 29°44' W 095°08'0 0.0
2017-Sep-19 23:30N 29°44' W 095°08'0 0.0
2017-Sep-19 22:57N 29°44' W 095°08'0 0.0
2017-Sep-19 22:30N 29°44' W 095°08'0 0.0
2017-Sep-19 22:00N 29°44' W 095°08'0 0.0
2017-Sep-19 21:28N 29°44' W 095°08'0 0.0
2017-Sep-19 21:00N 29°44' W 095°08'0 0.0
2017-Sep-19 20:28N 29°44' W 095°08'0 0.0
2017-Sep-19 19:48N 29°44' W 095°08'0 0.0
2017-Sep-19 19:30N 29°44' W 095°08'0 0.0
2017-Sep-19 18:41N 29°44' W 095°08'0 0.0
2017-Sep-19 18:29N 29°44' W 095°08'0 0.0
2017-Sep-19 18:00N 29°44' W 095°08'0 0.0
2017-Sep-19 17:29N 29°44' W 095°08'0 0.0
2017-Sep-19 17:00N 29°44' W 095°08'0 0.0
2017-Sep-19 16:30N 29°44' W 095°08'0 0.0
2017-Sep-19 16:00N 29°44' W 095°08'0 0.0
2017-Sep-19 15:30N 29°44' W 095°08'0 0.0
2017-Sep-19 15:00N 29°44' W 095°08'0 0.0
2017-Sep-19 14:30N 29°44' W 095°08'0 0.0
2017-Sep-19 14:00N 29°44' W 095°08'0 0.0
2017-Sep-19 13:30N 29°44' W 095°08'0 0.0
2017-Sep-19 13:00N 29°44' W 095°08'0 0.0
2017-Sep-19 12:30N 29°44' W 095°08'0 0.0
2017-Sep-19 11:59N 29°44' W 095°08'0 0.0
2017-Sep-19 11:29N 29°44' W 095°08'0 0.0
2017-Sep-19 11:00N 29°44' W 095°08'0 0.0
2017-Sep-19 10:29N 29°44' W 095°08'0 0.0
2017-Sep-19 10:00N 29°44' W 095°08'0 0.0
2017-Sep-19 09:29N 29°44' W 095°08'0 0.0
2017-Sep-19 09:00N 29°44' W 095°08'0 0.0
2017-Sep-19 08:30N 29°44' W 095°08'0 0.0
2017-Sep-19 08:00N 29°44' W 095°08'0 0.0
2017-Sep-19 07:30N 29°44' W 095°08'0 0.0
2017-Sep-19 07:00N 29°44' W 095°08'0 0.0
2017-Sep-19 06:30N 29°44' W 095°08'0 0.0
2017-Sep-19 05:59N 29°44' W 095°08'0 0.0
2017-Sep-19 05:28N 29°44' W 095°08'0 0.0
2017-Sep-19 05:00N 29°44' W 095°08'0 0.0
2017-Sep-19 04:30N 29°44' W 095°08'0 0.0
2017-Sep-19 03:59N 29°44' W 095°08'0 0.0
2017-Sep-19 03:30N 29°44' W 095°08'0 0.0
2017-Sep-19 03:00N 29°44' W 095°08'0 0.0
2017-Sep-19 02:29N 29°44' W 095°08'0 0.0
2017-Sep-19 02:00N 29°44' W 095°08'0 0.0
2017-Sep-19 01:30N 29°44' W 095°08'0 0.0
2017-Sep-19 00:56N 29°44' W 095°08'0 0.0
2017-Sep-19 00:29N 29°44' W 095°08'0 0.0
2017-Sep-18 23:58N 29°44' W 095°08'0 0.0
2017-Sep-18 23:30N 29°44' W 095°08'0 0.0
2017-Sep-18 23:00N 29°44' W 095°08'0 0.0
2017-Sep-18 22:30N 29°44' W 095°08'0 0.0
2017-Sep-18 21:52N 29°44' W 095°08'0 0.0
2017-Sep-18 21:30N 29°44' W 095°08'0 0.0
2017-Sep-18 21:00N 29°44' W 095°08'0 0.0
2017-Sep-18 20:27N 29°44' W 095°08'0 0.0
2017-Sep-18 19:57N 29°44' W 095°08'0 0.0
2017-Sep-18 19:30N 29°44' W 095°08'0 0.0
2017-Sep-18 19:00N 29°44' W 095°08'0 0.0
2017-Sep-18 18:30N 29°44' W 095°08'0 0.0
2017-Sep-18 17:58N 29°44' W 095°08'0 0.0
2017-Sep-18 17:30N 29°44' W 095°08'0 0.0
2017-Sep-18 16:45N 29°44' W 095°08'0 0.0
2017-Sep-18 14:57N 29°44' W 095°08'0 0.0
2017-Sep-18 14:25N 29°44' W 095°08'0 0.0
2017-Sep-18 14:00N 29°44' W 095°08'0 0.0
2017-Sep-18 13:28N 29°44' W 095°08'0 0.0
2017-Sep-18 12:58N 29°44' W 095°08'0 0.0
2017-Sep-18 12:25N 29°44' W 095°08'0 0.0
2017-Sep-18 11:52N 29°44' W 095°08'0 0.0
2017-Sep-18 11:26N 29°44' W 095°08'0 0.0
2017-Sep-18 10:58N 29°44' W 095°08'0 0.0
2017-Sep-18 10:29N 29°44' W 095°08'0 0.0
2017-Sep-18 10:00N 29°44' W 095°08'0 0.2
2017-Sep-18 09:26N 29°44' W 095°08'1 2.9
2017-Sep-18 09:00N 29°45' W 095°06'2 5.0
2017-Sep-18 08:30N 29°44' W 095°03'4 7.0
2017-Sep-18 08:00N 29°42' W 095°00'510.5
2017-Sep-18 07:30N 29°37' W 094°58'611.8
2017-Sep-18 07:00N 29°32' W 094°54'612.1
2017-Sep-18 06:30N 29°27' W 094°51'22 0.8
2017-Sep-17 03:50N 29°09' W 094°36'0 0.0
2017-Sep-17 03:20N 29°09' W 094°36'0 0.0
2017-Sep-17 02:59N 29°09' W 094°36'0 0.0
2017-Sep-17 02:29N 29°09' W 094°36'0 0.0
2017-Sep-17 01:53N 29°09' W 094°36'0 0.0
2017-Sep-17 01:26N 29°09' W 094°36'  
Track history (hours):
 
Tides and Currents Weather Stations Pressure Air Temp Water Temp Dewpoint Dewpoint Depression Visibility Wind Speed Wind Dir Waves Ship Positions

Esther Spirit

Last reported at 2017-Sep-21 17:47 UTC. Time now 2017-Nov-24 05:52 UTC.
Position N 29°29' W 094°51'.
Warning: this ship's position is months out of date.

Length 249 m; draft 12.5 m.

Type: Tanker. MMSI: 311646000.

Date/timePositionNaut miles runAvg speedWind from/ knotsBaromVisibWave heightAir tempDewpointWater temp
2017-Sep-21 17:47N 29°29' W 094°51'2 6.7
2017-Sep-21 17:29N 29°30' W 094°53'3 6.3
2017-Sep-21 17:00N 29°33' W 094°54'2 4.1
2017-Sep-21 16:30N 29°35' W 094°56'0 0.7
2017-Sep-21 16:00N 29°35' W 094°56'2 4.7
2017-Sep-21 15:30N 29°37' W 094°57'4 8.4
2017-Sep-21 15:00N 29°41' W 094°59'4 7.2
2017-Sep-21 14:29N 29°44' W 095°02'4 7.0
2017-Sep-21 13:59N 29°46' W 095°05'3 4.9
2017-Sep-21 13:28N 29°44' W 095°07'0 0.0
2017-Sep-20 12:00N 29°44' W 095°08'0 0.0
2017-Sep-20 11:28N 29°44' W 095°08'0 0.0
2017-Sep-20 10:57N 29°44' W 095°08'0 0.0
2017-Sep-20 10:29N 29°44' W 095°08'0 0.0
2017-Sep-20 09:59N 29°44' W 095°08'0 0.0
2017-Sep-20 09:30N 29°44' W 095°08'0 0.0
2017-Sep-20 09:00N 29°44' W 095°08'0 0.0
2017-Sep-20 08:29N 29°44' W 095°08'0 0.0
2017-Sep-20 07:59N 29°44' W 095°08'0 0.0
2017-Sep-20 07:23N 29°44' W 095°08'0 0.0
2017-Sep-20 06:58N 29°44' W 095°08'0 0.0
2017-Sep-20 06:30N 29°44' W 095°08'0 0.0
2017-Sep-20 06:00N 29°44' W 095°08'0 0.0
2017-Sep-20 05:27N 29°44' W 095°08'0 0.0
2017-Sep-20 05:00N 29°44' W 095°08'0 0.0
2017-Sep-20 04:30N 29°44' W 095°08'0 0.0
2017-Sep-20 03:57N 29°44' W 095°08'0 0.0
2017-Sep-20 03:30N 29°44' W 095°08'0 0.0
2017-Sep-20 03:00N 29°44' W 095°08'0 0.0
2017-Sep-20 02:30N 29°44' W 095°08'0 0.0
2017-Sep-20 01:57N 29°44' W 095°08'0 0.0
2017-Sep-20 01:30N 29°44' W 095°08'0 0.0
2017-Sep-20 00:52N 29°44' W 095°08'0 0.0
2017-Sep-20 00:28N 29°44' W 095°08'0 0.0
2017-Sep-20 00:00N 29°44' W 095°08'0 0.0
2017-Sep-19 23:30N 29°44' W 095°08'0 0.0
2017-Sep-19 22:57N 29°44' W 095°08'0 0.0
2017-Sep-19 22:30N 29°44' W 095°08'0 0.0
2017-Sep-19 22:00N 29°44' W 095°08'0 0.0
2017-Sep-19 21:28N 29°44' W 095°08'0 0.0
2017-Sep-19 21:00N 29°44' W 095°08'0 0.0
2017-Sep-19 20:28N 29°44' W 095°08'0 0.0
2017-Sep-19 19:48N 29°44' W 095°08'0 0.0
2017-Sep-19 19:30N 29°44' W 095°08'0 0.0
2017-Sep-19 18:41N 29°44' W 095°08'0 0.0
2017-Sep-19 18:29N 29°44' W 095°08'0 0.0
2017-Sep-19 18:00N 29°44' W 095°08'0 0.0
2017-Sep-19 17:29N 29°44' W 095°08'0 0.0
2017-Sep-19 17:00N 29°44' W 095°08'0 0.0
2017-Sep-19 16:30N 29°44' W 095°08'0 0.0
2017-Sep-19 16:00N 29°44' W 095°08'0 0.0
2017-Sep-19 15:30N 29°44' W 095°08'0 0.0
2017-Sep-19 15:00N 29°44' W 095°08'0 0.0
2017-Sep-19 14:30N 29°44' W 095°08'0 0.0
2017-Sep-19 14:00N 29°44' W 095°08'0 0.0
2017-Sep-19 13:30N 29°44' W 095°08'0 0.0
2017-Sep-19 13:00N 29°44' W 095°08'0 0.0
2017-Sep-19 12:30N 29°44' W 095°08'0 0.0
2017-Sep-19 11:59N 29°44' W 095°08'0 0.0
2017-Sep-19 11:29N 29°44' W 095°08'0 0.0
2017-Sep-19 11:00N 29°44' W 095°08'0 0.0
2017-Sep-19 10:29N 29°44' W 095°08'0 0.0
2017-Sep-19 10:00N 29°44' W 095°08'0 0.0
2017-Sep-19 09:29N 29°44' W 095°08'0 0.0
2017-Sep-19 09:00N 29°44' W 095°08'0 0.0
2017-Sep-19 08:30N 29°44' W 095°08'0 0.0
2017-Sep-19 08:00N 29°44' W 095°08'0 0.0
2017-Sep-19 07:30N 29°44' W 095°08'0 0.0
2017-Sep-19 07:00N 29°44' W 095°08'0 0.0
2017-Sep-19 06:30N 29°44' W 095°08'0 0.0
2017-Sep-19 05:59N 29°44' W 095°08'0 0.0
2017-Sep-19 05:28N 29°44' W 095°08'0 0.0
2017-Sep-19 05:00N 29°44' W 095°08'0 0.0
2017-Sep-19 04:30N 29°44' W 095°08'0 0.0
2017-Sep-19 03:59N 29°44' W 095°08'0 0.0
2017-Sep-19 03:30N 29°44' W 095°08'0 0.0
2017-Sep-19 03:00N 29°44' W 095°08'0 0.0
2017-Sep-19 02:29N 29°44' W 095°08'0 0.0
2017-Sep-19 02:00N 29°44' W 095°08'0 0.0
2017-Sep-19 01:30N 29°44' W 095°08'0 0.0
2017-Sep-19 00:56N 29°44' W 095°08'0 0.0
2017-Sep-19 00:29N 29°44' W 095°08'0 0.0
2017-Sep-18 23:58N 29°44' W 095°08'0 0.0
2017-Sep-18 23:30N 29°44' W 095°08'0 0.0
2017-Sep-18 23:00N 29°44' W 095°08'0 0.0
2017-Sep-18 22:30N 29°44' W 095°08'0 0.0
2017-Sep-18 21:52N 29°44' W 095°08'0 0.0
2017-Sep-18 21:30N 29°44' W 095°08'0 0.0
2017-Sep-18 21:00N 29°44' W 095°08'0 0.0
2017-Sep-18 20:27N 29°44' W 095°08'0 0.0
2017-Sep-18 19:57N 29°44' W 095°08'0 0.0
2017-Sep-18 19:30N 29°44' W 095°08'0 0.0
2017-Sep-18 19:00N 29°44' W 095°08'0 0.0
2017-Sep-18 18:30N 29°44' W 095°08'0 0.0
2017-Sep-18 17:58N 29°44' W 095°08'0 0.0
2017-Sep-18 17:30N 29°44' W 095°08'0 0.0
2017-Sep-18 16:45N 29°44' W 095°08'0 0.0
2017-Sep-18 14:57N 29°44' W 095°08'0 0.0
2017-Sep-18 14:25N 29°44' W 095°08'0 0.0
2017-Sep-18 14:00N 29°44' W 095°08'0 0.0
2017-Sep-18 13:28N 29°44' W 095°08'0 0.0
2017-Sep-18 12:58N 29°44' W 095°08'0 0.0
2017-Sep-18 12:25N 29°44' W 095°08'0 0.0
2017-Sep-18 11:52N 29°44' W 095°08'0 0.0
2017-Sep-18 11:26N 29°44' W 095°08'0 0.0
2017-Sep-18 10:58N 29°44' W 095°08'0 0.0
2017-Sep-18 10:29N 29°44' W 095°08'0 0.0
2017-Sep-18 10:00N 29°44' W 095°08'0 0.2
2017-Sep-18 09:26N 29°44' W 095°08'1 2.9
2017-Sep-18 09:00N 29°45' W 095°06'2 5.0
2017-Sep-18 08:30N 29°44' W 095°03'4 7.0
2017-Sep-18 08:00N 29°42' W 095°00'510.5
2017-Sep-18 07:30N 29°37' W 094°58'611.8
2017-Sep-18 07:00N 29°32' W 094°54'612.1
2017-Sep-18 06:30N 29°27' W 094°51'22 0.8
2017-Sep-17 03:50N 29°09' W 094°36'0 0.0
2017-Sep-17 03:20N 29°09' W 094°36'0 0.0
2017-Sep-17 02:59N 29°09' W 094°36'0 0.0
2017-Sep-17 02:29N 29°09' W 094°36'0 0.0
2017-Sep-17 01:53N 29°09' W 094°36'0 0.0
2017-Sep-17 01:26N 29°09' W 094°36'  

Dump ship's entire track history